createdAt,value
2019-01-05T00:00:31.356Z,6.12
2019-01-05T00:01:31.377Z,6.11
2019-01-05T00:02:31.341Z,6.20
2019-01-05T00:03:31.329Z,6.12
2019-01-05T00:04:31.340Z,6.14
2019-01-05T00:05:31.302Z,6.19
2019-01-05T00:06:31.294Z,6.16
2019-01-05T00:07:31.312Z,6.09
2019-01-05T00:08:31.269Z,6.11
2019-01-05T00:09:31.885Z,6.17
2019-01-05T00:10:31.257Z,6.20
2019-01-05T00:11:31.238Z,6.14
2019-01-05T00:12:31.229Z,6.17
2019-01-05T00:13:31.212Z,6.12
2019-01-05T00:14:31.222Z,6.14
2019-01-05T00:15:31.208Z,6.16
2019-01-05T00:16:31.188Z,6.19
2019-01-05T00:17:31.168Z,6.20
2019-01-05T00:18:31.154Z,6.09
2019-01-05T00:19:31.169Z,6.19
2019-01-05T00:20:31.136Z,6.16
2019-01-05T00:21:31.137Z,6.20
2019-01-05T00:22:31.131Z,6.16
2019-01-05T00:23:31.137Z,6.11
2019-01-05T00:24:31.089Z,6.14
2019-01-05T00:25:31.082Z,6.14
2019-01-05T00:26:31.084Z,6.16
2019-01-05T00:27:31.071Z,6.17
2019-01-05T00:28:31.046Z,6.14
2019-01-05T00:29:31.034Z,6.16
2019-01-05T00:30:31.022Z,6.19
2019-01-05T00:31:31.035Z,6.26
2019-01-05T00:32:31.000Z,6.27
2019-01-05T00:33:30.998Z,6.24
2019-01-05T00:34:30.977Z,6.27
2019-01-05T00:35:30.973Z,6.17
2019-01-05T00:36:30.960Z,6.22
2019-01-05T00:37:30.970Z,6.16
2019-01-05T00:38:30.971Z,6.27
2019-01-05T00:39:30.922Z,6.14
2019-01-05T00:40:30.912Z,6.12
2019-01-05T00:41:30.896Z,6.17
2019-01-05T00:42:30.887Z,6.12
2019-01-05T00:43:30.900Z,6.19
2019-01-05T00:44:30.875Z,6.14
2019-01-05T00:45:30.853Z,6.14
2019-01-05T00:46:30.841Z,6.20
2019-01-05T00:47:30.843Z,6.14
2019-01-05T00:48:30.825Z,6.14
2019-01-05T00:49:30.819Z,6.12
2019-01-05T00:50:30.813Z,6.17
2019-01-05T00:51:30.786Z,6.19
2019-01-05T00:52:30.777Z,6.14
2019-01-05T00:53:30.770Z,6.16
2019-01-05T00:54:30.768Z,6.19
2019-01-05T00:55:30.740Z,6.17
2019-01-05T00:56:30.752Z,6.20
2019-01-05T00:57:30.744Z,6.20
2019-01-05T00:58:30.707Z,6.14
2019-01-05T00:59:30.694Z,6.20
2019-01-05T01:00:30.683Z,6.14
2019-01-05T01:01:30.675Z,6.16
2019-01-05T01:02:30.688Z,6.20
2019-01-05T01:03:30.669Z,6.24
2019-01-05T01:04:30.645Z,6.16
2019-01-05T01:05:30.639Z,6.19
2019-01-05T01:06:30.623Z,6.17
2019-01-05T01:07:30.606Z,6.27
2019-01-05T01:08:30.629Z,6.24
2019-01-05T01:09:30.607Z,6.17
2019-01-05T01:10:30.573Z,6.24
2019-01-05T01:11:30.570Z,6.28
2019-01-05T01:12:30.618Z,6.31
2019-01-05T01:13:30.541Z,6.26
2019-01-05T01:14:30.549Z,6.31
2019-01-05T01:15:30.517Z,6.27
2019-01-05T01:16:30.506Z,6.27
2019-01-05T01:17:30.509Z,6.27
2019-01-05T01:18:30.489Z,6.22
2019-01-05T01:19:30.487Z,6.19
2019-01-05T01:20:30.471Z,6.19
2019-01-05T01:21:30.450Z,6.22
2019-01-05T01:22:30.440Z,6.19
2019-01-05T01:23:30.428Z,6.27
2019-01-05T01:24:30.432Z,6.30
2019-01-05T01:25:30.411Z,6.26
2019-01-05T01:26:30.418Z,6.35
2019-01-05T01:27:30.386Z,6.30
2019-01-05T01:28:30.373Z,6.33
2019-01-05T01:29:30.374Z,6.36
2019-01-05T01:30:30.351Z,6.31
2019-01-05T01:31:30.341Z,6.36
2019-01-05T01:32:30.339Z,6.35
2019-01-05T01:33:30.319Z,6.35
2019-01-05T01:34:30.322Z,6.28
2019-01-05T01:35:30.295Z,6.33
2019-01-05T01:36:30.282Z,6.35
2019-01-05T01:37:30.271Z,6.30
2019-01-05T01:38:30.285Z,6.31
2019-01-05T01:39:30.249Z,6.33
2019-01-05T01:40:30.248Z,6.33
2019-01-05T01:41:30.231Z,6.38
2019-01-05T01:42:30.214Z,6.41
2019-01-05T01:43:30.205Z,6.42
2019-01-05T01:44:30.230Z,6.42
2019-01-05T01:45:30.220Z,6.39
2019-01-05T01:46:30.173Z,6.46
2019-01-05T01:47:30.161Z,6.39
2019-01-05T01:48:30.148Z,6.38
2019-01-05T01:49:30.138Z,6.42
2019-01-05T01:50:30.173Z,6.46
2019-01-05T01:51:30.126Z,6.41
2019-01-05T01:52:30.138Z,6.39
2019-01-05T01:53:30.098Z,6.36
2019-01-05T01:54:30.086Z,6.45
2019-01-05T01:55:30.073Z,6.44
2019-01-05T01:56:30.102Z,6.42
2019-01-05T01:57:30.051Z,6.39
2019-01-05T01:58:30.052Z,6.41
2019-01-05T01:59:30.025Z,6.39
2019-01-05T02:00:30.015Z,6.42
2019-01-05T02:01:30.006Z,6.44
2019-01-05T02:02:30.019Z,6.42
2019-01-05T02:03:29.979Z,6.41
2019-01-05T02:04:29.984Z,6.36
2019-01-05T02:05:29.959Z,6.46
2019-01-05T02:06:29.947Z,6.52
2019-01-05T02:07:29.938Z,6.52
2019-01-05T02:08:29.954Z,6.59
2019-01-05T02:09:29.927Z,6.59
2019-01-05T02:10:29.901Z,6.63
2019-01-05T02:11:29.897Z,6.51
2019-01-05T02:12:29.885Z,6.57
2019-01-05T02:13:29.869Z,6.59
2019-01-05T02:14:29.892Z,6.54
2019-01-05T02:15:29.862Z,6.54
2019-01-05T02:16:29.837Z,6.52
2019-01-05T02:17:29.828Z,6.59
2019-01-05T02:18:29.812Z,6.64
2019-01-05T02:19:29.808Z,6.62
2019-01-05T02:20:29.829Z,6.60
2019-01-05T02:21:29.780Z,6.60
2019-01-05T02:22:29.782Z,6.60
2019-01-05T02:23:29.757Z,6.64
2019-01-05T02:24:29.745Z,6.66
2019-01-05T02:25:29.734Z,6.67
2019-01-05T02:26:29.751Z,6.66
2019-01-05T02:27:29.712Z,6.77
2019-01-05T02:28:29.704Z,6.69
2019-01-05T02:29:29.693Z,6.66
2019-01-05T02:30:29.678Z,6.74
2019-01-05T02:31:29.695Z,6.66
2019-01-05T02:32:29.686Z,6.69
2019-01-05T02:33:29.651Z,6.75
2019-01-05T02:34:29.635Z,6.70
2019-01-05T02:35:29.623Z,6.70
2019-01-05T02:36:29.611Z,6.72
2019-01-05T02:37:29.611Z,6.75
2019-01-05T02:38:29.620Z,6.79
2019-01-05T02:39:29.581Z,6.78
2019-01-05T02:40:29.569Z,6.84
2019-01-05T02:41:37.140Z,6.84
2019-01-05T02:42:29.586Z,6.82
2019-01-05T02:43:29.552Z,6.84
2019-01-05T02:44:29.549Z,6.77
2019-01-05T02:45:29.512Z,6.82
2019-01-05T02:46:29.505Z,6.82
2019-01-05T02:47:29.493Z,6.85
2019-01-05T02:48:29.530Z,6.88
2019-01-05T02:49:29.471Z,6.84
2019-01-05T02:50:29.469Z,6.78
2019-01-05T02:51:29.445Z,6.82
2019-01-05T02:52:29.432Z,6.81
2019-01-05T02:53:29.450Z,6.88
2019-01-05T02:54:29.414Z,6.87
2019-01-05T02:55:29.398Z,6.82
2019-01-05T02:56:29.387Z,6.88
2019-01-05T02:57:29.374Z,6.96
2019-01-05T02:58:29.398Z,6.87
2019-01-05T02:59:29.370Z,6.89
2019-01-05T03:00:29.349Z,6.89
2019-01-05T03:01:29.331Z,6.96
2019-01-05T03:02:29.326Z,6.89
2019-01-05T03:03:29.311Z,6.95
2019-01-05T03:04:29.321Z,6.92
2019-01-05T03:05:29.285Z,6.92
2019-01-05T03:06:29.276Z,6.85
2019-01-05T03:07:29.267Z,6.92
2019-01-05T03:08:29.259Z,6.95
2019-01-05T03:09:29.249Z,6.97
2019-01-05T03:10:29.245Z,6.99
2019-01-05T03:11:29.227Z,7.00
2019-01-05T03:12:29.211Z,6.97
2019-01-05T03:13:29.208Z,6.97
2019-01-05T03:14:29.190Z,7.00
2019-01-05T03:15:29.205Z,7.05
2019-01-05T03:16:29.164Z,6.99
2019-01-05T03:17:29.154Z,7.02
2019-01-05T03:18:29.150Z,6.97
2019-01-05T03:19:29.129Z,6.97
2019-01-05T03:20:29.119Z,7.06
2019-01-05T03:21:29.184Z,7.00
2019-01-05T03:22:29.102Z,7.06
2019-01-05T03:23:29.086Z,7.05
2019-01-05T03:24:29.079Z,7.02
2019-01-05T03:25:29.061Z,7.02
2019-01-05T03:26:29.051Z,7.03
2019-01-05T03:27:29.056Z,7.05
2019-01-05T03:28:29.028Z,7.05
2019-01-05T03:29:29.023Z,7.05
2019-01-05T03:30:29.009Z,7.03
2019-01-05T03:31:29.053Z,7.14
2019-01-05T03:32:28.990Z,7.02
2019-01-05T03:33:28.977Z,7.07
2019-01-05T03:34:28.966Z,7.02
2019-01-05T03:35:28.953Z,7.07
2019-01-05T03:36:28.942Z,7.11
2019-01-05T03:37:37.757Z,7.10
2019-01-05T03:38:36.469Z,7.03
2019-01-05T03:39:28.936Z,7.07
2019-01-05T03:40:36.492Z,7.10
2019-01-05T03:41:28.923Z,7.17
2019-01-05T03:42:37.766Z,7.05
2019-01-05T03:43:36.410Z,7.23
2019-01-05T03:44:28.865Z,7.15
2019-01-05T03:45:35.891Z,7.13
2019-01-05T03:46:36.434Z,7.23
2019-01-05T03:47:36.395Z,7.20
2019-01-05T03:48:28.824Z,7.15
2019-01-05T03:49:28.799Z,7.13
2019-01-05T03:50:28.809Z,7.11
2019-01-05T03:51:28.772Z,7.14
2019-01-05T03:52:28.763Z,7.17
2019-01-05T03:53:28.752Z,7.21
2019-01-05T03:54:28.752Z,7.13
2019-01-05T03:55:28.729Z,7.20
2019-01-05T03:56:28.718Z,7.18
2019-01-05T03:57:28.709Z,7.20
2019-01-05T03:58:28.698Z,7.21
2019-01-05T03:59:28.700Z,7.18
2019-01-05T04:00:28.693Z,7.24
2019-01-05T04:01:28.678Z,7.20
2019-01-05T04:02:28.666Z,7.23
2019-01-05T04:03:28.642Z,7.23
2019-01-05T04:04:28.646Z,7.17
2019-01-05T04:05:28.617Z,7.21
2019-01-05T04:06:28.628Z,7.17
2019-01-05T04:07:28.626Z,7.23
2019-01-05T04:08:28.579Z,7.29
2019-01-05T04:09:28.585Z,7.17
2019-01-05T04:10:28.572Z,7.17
2019-01-05T04:11:28.591Z,7.17
2019-01-05T04:12:28.544Z,7.18
2019-01-05T04:13:28.550Z,7.28
2019-01-05T04:14:28.552Z,7.25
2019-01-05T04:15:28.512Z,7.18
2019-01-05T04:16:28.493Z,7.25
2019-01-05T04:17:28.500Z,7.28
2019-01-05T04:18:28.469Z,7.28
2019-01-05T04:19:28.481Z,7.31
2019-01-05T04:20:28.474Z,7.32
2019-01-05T04:21:28.448Z,7.28
2019-01-05T04:22:28.426Z,7.24
2019-01-05T04:23:28.450Z,7.28
2019-01-05T04:24:28.402Z,7.25
2019-01-05T04:25:28.409Z,7.29
2019-01-05T04:26:28.390Z,7.28
2019-01-05T04:27:28.369Z,7.28
2019-01-05T04:28:28.362Z,7.31
2019-01-05T04:29:28.354Z,7.25
2019-01-05T04:30:28.338Z,7.28
2019-01-05T04:31:28.340Z,7.24
2019-01-05T04:32:28.315Z,7.28
2019-01-05T04:33:28.306Z,7.29
2019-01-05T04:34:28.289Z,7.28
2019-01-05T04:35:28.307Z,7.31
2019-01-05T04:36:28.272Z,7.23
2019-01-05T04:37:28.278Z,7.33
2019-01-05T04:38:28.246Z,7.23
2019-01-05T04:39:28.233Z,7.33
2019-01-05T04:40:28.226Z,7.28
2019-01-05T04:41:28.210Z,7.31
2019-01-05T04:42:28.198Z,7.31
2019-01-05T04:43:28.201Z,7.38
2019-01-05T04:44:28.182Z,7.33
2019-01-05T04:45:28.184Z,7.31
2019-01-05T04:46:28.180Z,7.28
2019-01-05T04:47:28.153Z,7.31
2019-01-05T04:48:28.139Z,7.29
2019-01-05T04:49:28.138Z,7.25
2019-01-05T04:50:28.111Z,7.33
2019-01-05T04:51:28.130Z,7.28
2019-01-05T04:52:28.095Z,7.25
2019-01-05T04:53:28.076Z,7.29
2019-01-05T04:54:28.065Z,7.25
2019-01-05T04:55:28.054Z,7.28
2019-01-05T04:56:28.048Z,7.29
2019-01-05T04:57:28.060Z,7.36
2019-01-05T04:58:28.051Z,7.39
2019-01-05T04:59:28.011Z,7.32
2019-01-05T05:00:28.010Z,7.29
2019-01-05T05:01:28.048Z,7.31
2019-01-05T05:02:27.978Z,7.25
2019-01-05T05:03:27.967Z,7.28
2019-01-05T05:04:27.968Z,7.29
2019-01-05T05:05:27.947Z,7.31
2019-01-05T05:06:27.934Z,7.35
2019-01-05T05:07:27.938Z,7.28
2019-01-05T05:08:27.908Z,7.31
2019-01-05T05:09:27.896Z,7.31
2019-01-05T05:10:27.929Z,7.32
2019-01-05T05:11:27.874Z,7.28
2019-01-05T05:12:27.864Z,7.31
2019-01-05T05:13:27.872Z,7.28
2019-01-05T05:14:27.848Z,7.31
2019-01-05T05:15:29.212Z,7.31
2019-01-05T05:16:27.822Z,7.25
2019-01-05T05:17:27.812Z,7.25
2019-01-05T05:18:27.794Z,7.31
2019-01-05T05:19:27.798Z,7.28
2019-01-05T05:20:27.773Z,7.29
2019-01-05T05:21:27.760Z,7.33
2019-01-05T05:22:27.754Z,7.25
2019-01-05T05:23:27.739Z,7.24
2019-01-05T05:24:27.729Z,7.23
2019-01-05T05:25:27.748Z,7.29
2019-01-05T05:26:27.711Z,7.24
2019-01-05T05:27:27.716Z,7.18
2019-01-05T05:28:27.696Z,7.20
2019-01-05T05:29:27.676Z,7.23
2019-01-05T05:30:27.711Z,7.23
2019-01-05T05:31:27.676Z,7.25
2019-01-05T05:32:27.635Z,7.29
2019-01-05T05:33:27.632Z,7.33
2019-01-05T05:34:27.622Z,7.21
2019-01-05T05:35:27.610Z,7.15
2019-01-05T05:36:27.616Z,7.17
2019-01-05T05:37:27.589Z,7.23
2019-01-05T05:38:27.576Z,7.20
2019-01-05T05:39:27.575Z,7.17
2019-01-05T05:40:27.552Z,7.20
2019-01-05T05:41:27.544Z,7.29
2019-01-05T05:42:27.539Z,7.28
2019-01-05T05:43:27.541Z,7.17
2019-01-05T05:44:27.501Z,7.29
2019-01-05T05:45:27.509Z,7.24
2019-01-05T05:46:27.480Z,7.17
2019-01-05T05:47:27.485Z,7.28
2019-01-05T05:48:27.465Z,7.31
2019-01-05T05:49:27.449Z,7.28
2019-01-05T05:50:27.442Z,7.23
2019-01-05T05:51:27.431Z,7.24
2019-01-05T05:52:27.422Z,7.29
2019-01-05T05:53:27.420Z,7.21
2019-01-05T05:54:27.392Z,7.18
2019-01-05T05:55:27.404Z,7.18
2019-01-05T05:56:27.399Z,7.21
2019-01-05T05:57:27.360Z,7.17
2019-01-05T05:58:27.372Z,7.20
2019-01-05T05:59:27.331Z,7.20
2019-01-05T06:00:27.324Z,7.21
2019-01-05T06:01:27.337Z,7.24
2019-01-05T06:02:27.306Z,7.24
2019-01-05T06:03:27.291Z,7.25
2019-01-05T06:04:27.334Z,7.33
2019-01-05T06:05:27.267Z,7.25
2019-01-05T06:06:27.256Z,7.25
2019-01-05T06:07:27.260Z,7.23
2019-01-05T06:08:27.247Z,7.23
2019-01-05T06:09:27.228Z,7.31
2019-01-05T06:10:27.225Z,7.24
2019-01-05T06:11:27.205Z,7.29
2019-01-05T06:12:27.188Z,7.32
2019-01-05T06:13:27.200Z,7.28
2019-01-05T06:14:27.169Z,7.35
2019-01-05T06:15:27.214Z,7.33
2019-01-05T06:16:27.171Z,7.23
2019-01-05T06:17:27.137Z,7.35
2019-01-05T06:18:27.128Z,7.25
2019-01-05T06:19:27.109Z,7.24
2019-01-05T06:20:27.116Z,7.23
2019-01-05T06:21:27.088Z,7.25
2019-01-05T06:22:27.092Z,7.21
2019-01-05T06:23:27.068Z,7.28
2019-01-05T06:24:27.055Z,7.28
2019-01-05T06:25:27.056Z,7.24
2019-01-05T06:26:27.042Z,7.29
2019-01-05T06:27:27.045Z,7.33
2019-01-05T06:28:27.025Z,7.28
2019-01-05T06:29:27.012Z,7.28
2019-01-05T06:30:26.990Z,7.17
2019-01-05T06:31:26.985Z,7.25
2019-01-05T06:32:26.962Z,7.28
2019-01-05T06:33:26.970Z,7.32
2019-01-05T06:34:26.951Z,7.28
2019-01-05T06:35:26.932Z,7.15
2019-01-05T06:36:26.928Z,7.24
2019-01-05T06:37:26.915Z,7.33
2019-01-05T06:38:26.911Z,7.28
2019-01-05T06:39:26.911Z,7.18
2019-01-05T06:40:26.875Z,7.21
2019-01-05T06:41:26.866Z,7.31
2019-01-05T06:42:26.851Z,7.28
2019-01-05T06:43:26.847Z,7.31
2019-01-05T06:44:26.843Z,7.31
2019-01-05T06:45:26.820Z,7.24
2019-01-05T06:46:26.805Z,7.24
2019-01-05T06:47:26.804Z,7.17
2019-01-05T06:48:26.790Z,7.25
2019-01-05T06:49:26.786Z,7.24
2019-01-05T06:50:26.781Z,7.25
2019-01-05T06:51:26.775Z,7.28
2019-01-05T06:52:27.392Z,7.29
2019-01-05T06:53:26.732Z,7.28
2019-01-05T06:54:26.724Z,7.28
2019-01-05T06:55:26.749Z,7.18
2019-01-05T06:56:26.703Z,7.28
2019-01-05T06:57:26.684Z,7.24
2019-01-05T06:58:26.674Z,7.25
2019-01-05T06:59:26.665Z,7.29
2019-01-05T07:00:26.653Z,7.32
2019-01-05T07:01:26.661Z,7.28
2019-01-05T07:02:26.633Z,7.24
2019-01-05T07:03:26.616Z,7.17
2019-01-05T07:04:26.605Z,7.25
2019-01-05T07:05:26.593Z,7.15
2019-01-05T07:06:26.583Z,7.14
2019-01-05T07:07:26.589Z,7.25
2019-01-05T07:08:26.570Z,7.24
2019-01-05T07:09:26.562Z,7.31
2019-01-05T07:10:26.540Z,7.32
2019-01-05T07:11:26.526Z,7.29
2019-01-05T07:12:26.516Z,7.31
2019-01-05T07:13:26.519Z,7.29
2019-01-05T07:14:26.510Z,7.28
2019-01-05T07:15:26.480Z,7.28
2019-01-05T07:16:26.470Z,7.33
2019-01-05T07:17:26.458Z,7.32
2019-01-05T07:18:26.462Z,7.25
2019-01-05T07:19:26.452Z,7.28
2019-01-05T07:20:26.431Z,7.24
2019-01-05T07:21:26.431Z,7.29
2019-01-05T07:22:26.402Z,7.33
2019-01-05T07:23:26.389Z,7.29
2019-01-05T07:24:26.391Z,7.31
2019-01-05T07:25:26.386Z,7.31
2019-01-05T07:26:26.361Z,7.28
2019-01-05T07:27:26.362Z,7.36
2019-01-05T07:28:26.336Z,7.33
2019-01-05T07:29:26.325Z,7.32
2019-01-05T07:30:26.314Z,7.31
2019-01-05T07:31:26.314Z,7.35
2019-01-05T07:32:26.304Z,7.38
2019-01-05T07:33:26.288Z,7.36
2019-01-05T07:34:26.293Z,7.40
2019-01-05T07:35:26.257Z,7.33
2019-01-05T07:36:26.259Z,7.32
2019-01-05T07:37:26.237Z,7.39
2019-01-05T07:38:26.241Z,7.33
2019-01-05T07:39:26.239Z,7.31
2019-01-05T07:40:26.228Z,7.36
2019-01-05T07:41:26.189Z,7.25
2019-01-05T07:42:26.178Z,7.42
2019-01-05T07:43:26.166Z,7.36
2019-01-05T07:44:26.179Z,7.31
2019-01-05T07:45:26.146Z,7.31
2019-01-05T07:46:26.141Z,7.33
2019-01-05T07:47:26.129Z,7.31
2019-01-05T07:48:26.110Z,7.31
2019-01-05T07:49:26.106Z,7.38
2019-01-05T07:50:26.103Z,7.24
2019-01-05T07:51:26.078Z,7.29
2019-01-05T07:52:26.089Z,7.40
2019-01-05T07:53:26.055Z,7.32
2019-01-05T07:54:26.071Z,7.35
2019-01-05T07:55:26.046Z,7.31
2019-01-05T07:56:26.021Z,7.36
2019-01-05T07:57:26.010Z,7.32
2019-01-05T07:58:25.997Z,7.31
2019-01-05T07:59:25.987Z,7.32
2019-01-05T08:00:25.994Z,7.38
2019-01-05T08:01:25.994Z,7.29
2019-01-05T08:02:25.962Z,7.32
2019-01-05T08:03:25.948Z,7.40
2019-01-05T08:04:25.934Z,7.35
2019-01-05T08:05:25.921Z,7.43
2019-01-05T08:06:25.957Z,7.32
2019-01-05T08:07:25.928Z,7.39
2019-01-05T08:08:25.920Z,7.32
2019-01-05T08:09:25.875Z,7.32
2019-01-05T08:10:25.864Z,7.35
2019-01-05T08:11:25.885Z,7.29
2019-01-05T08:12:25.848Z,7.43
2019-01-05T08:13:25.871Z,7.36
2019-01-05T08:14:25.838Z,7.38
2019-01-05T08:15:25.813Z,7.33
2019-01-05T08:16:25.814Z,7.29
2019-01-05T08:17:25.798Z,7.25
2019-01-05T08:18:25.795Z,7.39
2019-01-05T08:19:25.764Z,7.40
2019-01-05T08:20:25.771Z,7.39
2019-01-05T08:21:25.741Z,7.33
2019-01-05T08:22:25.757Z,7.35
2019-01-05T08:23:25.738Z,7.36
2019-01-05T08:24:25.709Z,7.35
2019-01-05T08:25:25.710Z,7.31
2019-01-05T08:26:25.751Z,7.38
2019-01-05T08:27:25.681Z,7.31
2019-01-05T08:28:25.666Z,7.32
2019-01-05T08:29:25.661Z,7.31
2019-01-05T08:30:25.640Z,7.29
2019-01-05T08:31:25.654Z,7.32
2019-01-05T08:32:25.616Z,7.33
2019-01-05T08:33:25.605Z,7.35
2019-01-05T08:34:25.653Z,7.36
2019-01-05T08:35:25.583Z,7.33
2019-01-05T08:36:25.571Z,7.28
2019-01-05T08:37:25.571Z,7.33
2019-01-05T08:38:25.548Z,7.39
2019-01-05T08:39:25.544Z,7.33
2019-01-05T08:40:25.529Z,7.38
2019-01-05T08:41:25.514Z,7.32
2019-01-05T08:42:34.376Z,7.35
2019-01-05T08:43:25.509Z,7.32
2019-01-05T08:44:25.481Z,7.38
2019-01-05T08:45:25.488Z,7.35
2019-01-05T08:46:25.461Z,7.36
2019-01-05T08:47:25.453Z,7.32
2019-01-05T08:48:25.465Z,7.35
2019-01-05T08:49:25.439Z,7.43
2019-01-05T08:50:25.414Z,7.42
2019-01-05T08:51:25.409Z,7.39
2019-01-05T08:52:25.393Z,7.40
2019-01-05T08:53:25.397Z,7.38
2019-01-05T08:54:25.378Z,7.40
2019-01-05T08:55:25.353Z,7.36
2019-01-05T08:56:25.390Z,7.33
2019-01-05T08:57:25.334Z,7.35
2019-01-05T08:58:25.320Z,7.43
2019-01-05T08:59:25.327Z,7.38
2019-01-05T09:00:25.305Z,7.42
2019-01-05T09:01:25.287Z,7.40
2019-01-05T09:02:25.339Z,7.39
2019-01-05T09:03:25.268Z,7.47
2019-01-05T09:04:25.256Z,7.35
2019-01-05T09:05:25.255Z,7.35
2019-01-05T09:06:25.236Z,7.39
2019-01-05T09:07:25.225Z,7.45
2019-01-05T09:08:25.211Z,7.51
2019-01-05T09:09:25.226Z,7.42
2019-01-05T09:10:25.202Z,7.35
2019-01-05T09:11:25.176Z,7.38
2019-01-05T09:12:25.164Z,7.40
2019-01-05T09:13:25.151Z,7.42
2019-01-05T09:14:25.139Z,7.38
2019-01-05T09:15:25.159Z,7.45
2019-01-05T09:16:25.136Z,7.38
2019-01-05T09:17:25.107Z,7.38
2019-01-05T09:18:25.098Z,7.38
2019-01-05T09:19:25.099Z,7.42
2019-01-05T09:20:25.075Z,7.35
2019-01-05T09:21:25.096Z,7.39
2019-01-05T09:22:25.062Z,7.47
2019-01-05T09:23:25.042Z,7.45
2019-01-05T09:24:25.031Z,7.45
2019-01-05T09:25:25.015Z,7.42
2019-01-05T09:26:25.010Z,7.43
2019-01-05T09:27:25.016Z,7.45
2019-01-05T09:28:24.984Z,7.47
2019-01-05T09:29:24.990Z,7.48
2019-01-05T09:30:24.968Z,7.48
2019-01-05T09:31:24.949Z,7.45
2019-01-05T09:32:24.939Z,7.45
2019-01-05T09:33:24.934Z,7.50
2019-01-05T09:34:24.918Z,7.47
2019-01-05T09:35:24.923Z,7.47
2019-01-05T09:36:24.894Z,7.45
2019-01-05T09:37:24.882Z,7.53
2019-01-05T09:38:24.870Z,7.50
2019-01-05T09:39:24.866Z,7.47
2019-01-05T09:40:24.863Z,7.50
2019-01-05T09:41:24.849Z,7.51
2019-01-05T09:42:24.827Z,7.48
2019-01-05T09:43:25.055Z,7.48
2019-01-05T09:44:24.802Z,7.47
2019-01-05T09:45:24.812Z,7.51
2019-01-05T09:46:24.811Z,7.56
2019-01-05T09:47:24.770Z,7.42
2019-01-05T09:48:24.759Z,7.54
2019-01-05T09:49:24.749Z,7.50
2019-01-05T09:50:24.738Z,7.51
2019-01-05T09:51:24.765Z,7.54
2019-01-05T09:52:24.730Z,7.47
2019-01-05T09:53:24.703Z,7.51
2019-01-05T09:54:24.691Z,7.43
2019-01-05T09:55:24.681Z,7.47
2019-01-05T09:56:24.674Z,7.51
2019-01-05T09:57:24.683Z,7.48
2019-01-05T09:58:24.665Z,7.53
2019-01-05T09:59:24.634Z,7.56
2019-01-05T10:00:24.626Z,7.54
2019-01-05T10:01:24.612Z,7.57
2019-01-05T10:02:24.601Z,7.50
2019-01-05T10:03:24.606Z,7.60
2019-01-05T10:04:24.604Z,7.54
2019-01-05T10:05:24.569Z,7.60
2019-01-05T10:06:24.555Z,7.60
2019-01-05T10:07:24.546Z,7.61
2019-01-05T10:08:24.534Z,7.61
2019-01-05T10:09:24.543Z,7.58
2019-01-05T10:10:24.532Z,7.61
2019-01-05T10:11:24.504Z,7.58
2019-01-05T10:12:24.490Z,7.63
2019-01-05T10:13:24.485Z,7.54
2019-01-05T10:14:24.468Z,7.56
2019-01-05T10:15:24.487Z,7.58
2019-01-05T10:16:24.445Z,7.58
2019-01-05T10:17:24.436Z,7.63
2019-01-05T10:18:24.422Z,7.56
2019-01-05T10:19:24.428Z,7.61
2019-01-05T10:20:24.400Z,7.57
2019-01-05T10:21:24.403Z,7.56
2019-01-05T10:22:24.391Z,7.72
2019-01-05T10:23:24.372Z,7.60
2019-01-05T10:24:24.355Z,7.63
2019-01-05T10:25:24.345Z,7.56
2019-01-05T10:26:24.330Z,7.67
2019-01-05T10:27:24.363Z,7.61
2019-01-05T10:28:24.309Z,7.60
2019-01-05T10:29:24.304Z,7.58
2019-01-05T10:30:24.288Z,7.60
2019-01-05T10:31:24.280Z,7.63
2019-01-05T10:32:24.266Z,7.54
2019-01-05T10:33:24.292Z,7.58
2019-01-05T10:34:24.244Z,7.57
2019-01-05T10:35:24.230Z,7.53
2019-01-05T10:36:24.220Z,7.54
2019-01-05T10:37:24.213Z,7.56
2019-01-05T10:38:24.201Z,7.66
2019-01-05T10:39:24.197Z,7.63
2019-01-05T10:40:24.192Z,7.63
2019-01-05T10:41:24.165Z,7.67
2019-01-05T10:42:24.153Z,7.58
2019-01-05T10:43:24.139Z,7.66
2019-01-05T10:44:24.142Z,7.57
2019-01-05T10:45:24.127Z,7.60
2019-01-05T10:46:24.128Z,7.61
2019-01-05T10:47:24.095Z,7.61
2019-01-05T10:48:24.093Z,7.56
2019-01-05T10:49:24.095Z,7.70
2019-01-05T10:50:24.064Z,7.56
2019-01-05T10:51:24.051Z,7.66
2019-01-05T10:52:24.076Z,7.58
2019-01-05T10:53:24.029Z,7.69
2019-01-05T10:54:24.020Z,7.53
2019-01-05T10:55:24.026Z,7.60
2019-01-05T10:56:23.993Z,7.56
2019-01-05T10:57:23.983Z,7.67
2019-01-05T10:58:23.996Z,7.72
2019-01-05T10:59:23.972Z,7.58
2019-01-05T11:00:23.969Z,7.69
2019-01-05T11:01:23.958Z,7.66
2019-01-05T11:02:24.314Z,7.61
2019-01-05T11:03:23.919Z,7.66
2019-01-05T11:04:23.906Z,7.67
2019-01-05T11:05:23.907Z,7.56
2019-01-05T11:06:23.882Z,7.58
2019-01-05T11:07:23.889Z,7.54
2019-01-05T11:08:23.865Z,7.61
2019-01-05T11:09:23.850Z,7.51
2019-01-05T11:10:23.838Z,7.66
2019-01-05T11:11:23.841Z,7.56
2019-01-05T11:12:23.823Z,7.70
2019-01-05T11:13:23.825Z,7.70
2019-01-05T11:14:23.798Z,7.61
2019-01-05T11:15:23.785Z,7.54
2019-01-05T11:16:23.774Z,7.54
2019-01-05T11:17:23.769Z,7.58
2019-01-05T11:18:23.775Z,7.67
2019-01-05T11:19:23.769Z,7.58
2019-01-05T11:20:23.723Z,7.69
2019-01-05T11:21:23.719Z,7.66
2019-01-05T11:22:23.717Z,7.53
2019-01-05T11:23:23.691Z,7.58
2019-01-05T11:24:23.735Z,7.57
2019-01-05T11:25:23.682Z,7.61
2019-01-05T11:26:23.661Z,7.69
2019-01-05T11:27:23.652Z,7.67
2019-01-05T11:28:23.638Z,7.66
2019-01-05T11:29:23.624Z,7.61
2019-01-05T11:30:23.665Z,7.61
2019-01-05T11:31:23.623Z,7.76
2019-01-05T11:32:23.612Z,7.69
2019-01-05T11:33:23.578Z,7.67
2019-01-05T11:34:23.573Z,7.67
2019-01-05T11:35:23.559Z,7.57
2019-01-05T11:36:23.570Z,7.69
2019-01-05T11:37:23.549Z,7.56
2019-01-05T11:38:23.534Z,7.67
2019-01-05T11:39:23.512Z,7.61
2019-01-05T11:40:23.500Z,7.61
2019-01-05T11:41:23.492Z,7.58
2019-01-05T11:42:23.491Z,7.61
2019-01-05T11:43:23.493Z,7.73
2019-01-05T11:44:23.466Z,7.70
2019-01-05T11:45:23.446Z,7.67
2019-01-05T11:46:23.433Z,7.61
2019-01-05T11:47:23.438Z,7.61
2019-01-05T11:48:23.435Z,7.60
2019-01-05T11:49:23.415Z,7.61
2019-01-05T11:50:23.390Z,7.73
2019-01-05T11:51:23.379Z,7.67
2019-01-05T11:52:23.365Z,7.66
2019-01-05T11:53:23.369Z,7.69
2019-01-05T11:54:23.364Z,7.67
2019-01-05T11:55:23.345Z,7.63
2019-01-05T11:56:23.322Z,7.70
2019-01-05T11:57:23.321Z,7.75
2019-01-05T11:58:23.309Z,7.72
2019-01-05T11:59:23.287Z,7.70
2019-01-05T12:00:23.305Z,7.66
2019-01-05T12:01:23.267Z,7.70
2019-01-05T12:02:23.254Z,7.77
2019-01-05T12:03:23.242Z,7.77
2019-01-05T12:04:23.241Z,7.70
2019-01-05T12:05:23.219Z,7.80
2019-01-05T12:06:23.243Z,7.67
2019-01-05T12:07:23.216Z,7.82
2019-01-05T12:08:23.203Z,7.70
2019-01-05T12:09:23.193Z,7.70
2019-01-05T12:10:23.180Z,7.72
2019-01-05T12:11:23.162Z,7.73
2019-01-05T12:12:23.170Z,7.69
2019-01-05T12:13:23.135Z,7.66
2019-01-05T12:14:23.122Z,7.69
2019-01-05T12:15:23.111Z,7.76
2019-01-05T12:16:23.099Z,7.63
2019-01-05T12:17:23.112Z,7.69
2019-01-05T12:18:23.086Z,7.67
2019-01-05T12:19:23.067Z,7.67
2019-01-05T12:20:23.056Z,7.70
2019-01-05T12:21:23.045Z,7.69
2019-01-05T12:22:23.030Z,7.70
2019-01-05T12:23:23.038Z,7.75
2019-01-05T12:24:23.017Z,7.72
2019-01-05T12:25:23.001Z,7.76
2019-01-05T12:26:22.988Z,7.72
2019-01-05T12:27:22.977Z,7.70
2019-01-05T12:28:22.966Z,7.67
2019-01-05T12:29:22.972Z,7.67
2019-01-05T12:30:22.964Z,7.63
2019-01-05T12:31:22.933Z,7.66
2019-01-05T12:32:22.919Z,7.67
2019-01-05T12:33:22.907Z,7.75
2019-01-05T12:34:22.896Z,7.80
2019-01-05T12:35:22.921Z,7.73
2019-01-05T12:36:22.885Z,7.69
2019-01-05T12:37:22.870Z,7.63
2019-01-05T12:38:22.854Z,7.73
2019-01-05T12:39:22.843Z,7.73
2019-01-05T12:40:22.846Z,7.72
2019-01-05T12:41:22.831Z,7.66
2019-01-05T12:42:22.819Z,7.63
2019-01-05T12:43:22.800Z,7.67
2019-01-05T12:44:22.788Z,7.80
2019-01-05T12:45:22.777Z,7.70
2019-01-05T12:46:22.789Z,7.79
2019-01-05T12:47:22.754Z,7.79
2019-01-05T12:48:22.754Z,7.77
2019-01-05T12:49:22.734Z,7.82
2019-01-05T12:50:22.718Z,7.79
2019-01-05T12:51:22.708Z,7.76
2019-01-05T12:52:22.710Z,7.67
2019-01-05T12:53:22.687Z,7.63
2019-01-05T12:54:22.703Z,7.67
2019-01-05T12:55:22.667Z,7.63
2019-01-05T12:56:22.653Z,7.66
2019-01-05T12:57:22.641Z,7.76
2019-01-05T12:58:22.644Z,7.77
2019-01-05T12:59:22.620Z,7.77
2019-01-05T13:00:22.623Z,7.83
2019-01-05T13:01:22.598Z,7.76
2019-01-05T13:02:22.602Z,7.70
2019-01-05T13:03:22.572Z,7.77
2019-01-05T13:04:22.565Z,7.69
2019-01-05T13:05:22.553Z,7.77
2019-01-05T13:06:22.560Z,7.66
2019-01-05T13:07:22.529Z,7.77
2019-01-05T13:08:22.532Z,7.77
2019-01-05T13:09:22.507Z,7.82
2019-01-05T13:10:22.496Z,7.83
2019-01-05T13:11:22.519Z,7.67
2019-01-05T13:12:22.492Z,7.69
2019-01-05T13:13:22.484Z,7.63
2019-01-05T13:14:22.457Z,7.70
2019-01-05T13:15:22.485Z,7.70
2019-01-05T13:16:22.428Z,7.76
2019-01-05T13:17:22.439Z,7.80
2019-01-05T13:18:22.411Z,7.67